createdAt,value
2019-03-19T00:02:02.639Z,99144.84
2019-03-19T00:04:13.466Z,99144.27
2019-03-19T00:06:24.283Z,99149.14
2019-03-19T00:08:35.179Z,99149.63
2019-03-19T00:10:45.987Z,99150.95
2019-03-19T00:12:56.805Z,99148.03
2019-03-19T00:15:49.261Z,99149.77
2019-03-19T00:18:00.073Z,99149.31
2019-03-19T00:20:52.533Z,99151.48
2019-03-19T00:23:03.458Z,99157.51
2019-03-19T00:25:14.274Z,99163.89
2019-03-19T00:27:25.173Z,99158.39
2019-03-19T00:29:36.042Z,99158.88
2019-03-19T00:31:46.862Z,99153.34
2019-03-19T00:33:57.675Z,99152.10
2019-03-19T00:36:08.486Z,99154.23
2019-03-19T00:38:19.316Z,99156.34
2019-03-19T00:40:30.232Z,99159.72
2019-03-19T00:42:41.046Z,99153.17
2019-03-19T00:44:51.868Z,99156.94
2019-03-19T00:47:02.716Z,99156.05
2019-03-19T00:49:13.541Z,99155.95
2019-03-19T00:51:24.359Z,99145.24
2019-03-19T00:53:35.190Z,99151.27
2019-03-19T00:55:45.985Z,99154.23
2019-03-19T00:57:56.841Z,99163.13
2019-03-19T01:00:27.495Z,99156.27
2019-03-19T01:02:38.378Z,99160.42
2019-03-19T01:04:49.186Z,99158.16
2019-03-19T01:06:59.968Z,99159.92
2019-03-19T01:09:10.793Z,99163.44
2019-03-19T01:11:21.606Z,99165.30
2019-03-19T01:13:32.486Z,99159.33
2019-03-19T01:15:43.302Z,99158.04
2019-03-19T01:17:54.110Z,99161.84
2019-03-19T01:20:46.574Z,99160.11
2019-03-19T01:22:57.384Z,99163.03
2019-03-19T01:25:55.639Z,99162.16
2019-03-19T01:28:02.784Z,99168.48
2019-03-19T01:30:55.270Z,99170.61
2019-03-19T01:33:06.134Z,99168.56
2019-03-19T01:35:16.945Z,99166.05
2019-03-19T01:37:27.748Z,99160.91
2019-03-19T01:39:38.564Z,99159.23
2019-03-19T01:41:49.369Z,99163.18
2019-03-19T01:44:00.191Z,99161.14
2019-03-19T01:46:11.000Z,99158.66
2019-03-19T01:48:21.776Z,99156.63
2019-03-19T01:50:32.619Z,99157.99
2019-03-19T01:52:43.421Z,99159.00
2019-03-19T01:54:54.230Z,99158.16
2019-03-19T01:57:05.018Z,99162.45
2019-03-19T01:59:15.844Z,99166.34
2019-03-19T02:01:26.637Z,99163.86
2019-03-19T02:03:37.442Z,99170.75
2019-03-19T02:05:48.277Z,99172.45
2019-03-19T02:07:59.067Z,99165.98
2019-03-19T02:10:51.532Z,99168.43
2019-03-19T02:13:02.356Z,99167.02
2019-03-19T02:15:54.829Z,99163.92
2019-03-19T02:18:05.691Z,99168.05
2019-03-19T02:20:58.145Z,99171.81
2019-03-19T02:23:08.942Z,99171.45
2019-03-19T02:25:19.770Z,99174.28
2019-03-19T02:27:30.670Z,99170.03
2019-03-19T02:29:41.481Z,99165.78
2019-03-19T02:31:52.302Z,99172.56
2019-03-19T02:34:03.206Z,99180.66
2019-03-19T02:36:14.027Z,99183.70
2019-03-19T02:38:24.824Z,99179.73
2019-03-19T02:40:35.650Z,99185.22
2019-03-19T02:42:46.466Z,99178.41
2019-03-19T02:44:57.366Z,99174.20
2019-03-19T02:47:08.377Z,99178.45
2019-03-19T02:49:19.163Z,99178.45
2019-03-19T02:51:29.983Z,99181.78
2019-03-19T02:53:40.778Z,99179.12
2019-03-19T02:55:51.593Z,99182.48
2019-03-19T02:58:02.555Z,99179.52
2019-03-19T03:00:54.955Z,99185.02
2019-03-19T03:03:05.777Z,99188.06
2019-03-19T03:05:58.216Z,99189.70
2019-03-19T03:08:09.026Z,99188.42
2019-03-19T03:10:19.958Z,99191.80
2019-03-19T03:12:30.838Z,99189.22
2019-03-19T03:14:41.635Z,99196.39
2019-03-19T03:16:52.544Z,99189.92
2019-03-19T03:19:03.561Z,99192.45
2019-03-19T03:21:14.378Z,99197.63
2019-03-19T03:23:25.211Z,99197.81
2019-03-19T03:25:36.018Z,99197.86
2019-03-19T03:27:46.833Z,99196.26
2019-03-19T03:29:57.641Z,99196.70
2019-03-19T03:32:08.438Z,99199.30
2019-03-19T03:34:19.298Z,99200.16
2019-03-19T03:36:30.085Z,99205.77
2019-03-19T03:38:40.924Z,99202.85
2019-03-19T03:40:51.710Z,99207.14
2019-03-19T03:43:02.762Z,99209.30
2019-03-19T03:45:55.194Z,99208.10
2019-03-19T03:48:06.025Z,99210.27
2019-03-19T03:53:15.592Z,99231.30
2019-03-19T03:55:26.391Z,99233.02
2019-03-19T03:57:37.175Z,99235.03
2019-03-19T03:59:47.981Z,99237.95
2019-03-19T04:01:58.814Z,99235.80
2019-03-19T04:04:09.651Z,99235.75
2019-03-19T04:06:20.456Z,99239.16
2019-03-19T04:08:31.258Z,99236.59
2019-03-19T04:10:42.082Z,99248.47
2019-03-19T04:12:53.000Z,99243.78
2019-03-19T04:15:45.453Z,99246.46
2019-03-19T04:17:56.251Z,99255.02
2019-03-19T04:20:48.728Z,99248.63
2019-03-19T04:22:59.529Z,99244.74
2019-03-19T04:25:10.448Z,99256.70
2019-03-19T04:27:21.346Z,99252.80
2019-03-19T04:29:32.170Z,99256.66
2019-03-19T04:31:43.072Z,99255.89
2019-03-19T04:33:53.865Z,99257.14
2019-03-19T04:36:04.681Z,99259.22
2019-03-19T04:38:15.472Z,99259.63
2019-03-19T04:40:26.293Z,99260.42
2019-03-19T04:42:37.066Z,99270.27
2019-03-19T04:44:47.875Z,99271.59
2019-03-19T04:46:58.685Z,99273.36
2019-03-19T04:49:09.506Z,99272.99
2019-03-19T04:51:20.320Z,99275.70
2019-03-19T04:53:31.117Z,99286.49
2019-03-19T04:55:42.042Z,99285.69
2019-03-19T04:57:52.844Z,99292.58
2019-03-19T05:00:45.355Z,99285.32
2019-03-19T05:02:56.162Z,99286.16
2019-03-19T05:05:48.641Z,99294.38
2019-03-19T05:07:59.473Z,99301.64
2019-03-19T05:10:30.153Z,99300.35
2019-03-19T05:12:40.966Z,99296.47
2019-03-19T05:14:51.779Z,99293.94
2019-03-19T05:19:24.779Z,99295.69
2019-03-19T05:21:35.682Z,99295.80
2019-03-19T05:23:46.513Z,99309.06
2019-03-19T05:25:57.299Z,99308.25
2019-03-19T05:28:08.115Z,99307.44
2019-03-19T05:31:00.573Z,99298.96
2019-03-19T05:33:11.393Z,99309.25
2019-03-19T05:35:22.213Z,99317.05
2019-03-19T05:37:33.034Z,99312.77
2019-03-19T05:39:43.810Z,99321.21
2019-03-19T05:41:54.607Z,99323.72
2019-03-19T05:44:05.439Z,99325.81
2019-03-19T05:46:16.330Z,99324.06
2019-03-19T05:48:27.154Z,99330.87
2019-03-19T05:50:37.952Z,99338.17
2019-03-19T05:52:48.990Z,99336.86
2019-03-19T05:54:59.805Z,99338.55
2019-03-19T05:57:10.613Z,99335.58
2019-03-19T05:59:21.424Z,99343.34
2019-03-19T06:01:32.214Z,99345.09
2019-03-19T06:03:43.028Z,99350.66
2019-03-19T06:05:53.848Z,99346.41
2019-03-19T06:08:04.666Z,99349.88
2019-03-19T06:10:15.486Z,99358.45
2019-03-19T06:12:26.315Z,99361.42
2019-03-19T06:14:37.191Z,99354.16
2019-03-19T06:16:48.031Z,99361.33
2019-03-19T06:18:58.853Z,99364.25
2019-03-19T06:21:09.721Z,99365.84
2019-03-19T06:23:20.543Z,99365.34
2019-03-19T06:25:31.369Z,99378.80
2019-03-19T06:27:42.164Z,99373.12
2019-03-19T06:29:52.975Z,99377.78
2019-03-19T06:32:03.810Z,99371.25
2019-03-19T06:34:14.625Z,99373.34
2019-03-19T06:36:25.434Z,99381.49
2019-03-19T06:38:36.225Z,99376.28
2019-03-19T06:40:47.052Z,99378.85
2019-03-19T06:42:57.874Z,99382.30
2019-03-19T06:45:50.369Z,99384.77
2019-03-19T06:48:01.186Z,99385.53
2019-03-19T06:50:31.869Z,99378.52
2019-03-19T06:52:42.766Z,99381.04
2019-03-19T06:54:53.578Z,99379.96
2019-03-19T06:57:04.456Z,99386.27
2019-03-19T06:59:15.211Z,99387.90
2019-03-19T07:01:26.030Z,99392.00
2019-03-19T07:03:36.858Z,99394.07
2019-03-19T07:05:47.686Z,99398.98
2019-03-19T07:07:58.486Z,99388.90
2019-03-19T07:10:29.243Z,99387.38
2019-03-19T07:15:54.162Z,99388.74
2019-03-19T07:18:04.978Z,99396.28
2019-03-19T07:20:57.448Z,99398.02
2019-03-19T07:23:08.254Z,99396.20
2019-03-19T07:25:19.258Z,99403.66
2019-03-19T07:27:30.072Z,99403.55
2019-03-19T07:29:40.866Z,99408.25
2019-03-19T07:31:51.699Z,99415.33
2019-03-19T07:34:02.509Z,99409.92
2019-03-19T07:36:13.318Z,99411.39
2019-03-19T07:38:24.162Z,99415.98
2019-03-19T07:40:34.960Z,99410.45
2019-03-19T07:42:45.894Z,99402.43
2019-03-19T07:44:56.862Z,99407.89
2019-03-19T07:47:07.673Z,99410.65
2019-03-19T07:49:18.515Z,99409.27
2019-03-19T07:51:29.335Z,99412.20
2019-03-19T07:53:40.131Z,99417.58
2019-03-19T07:55:53.318Z,99416.34
2019-03-19T07:58:03.709Z,99419.15
2019-03-19T08:00:34.384Z,99419.20
2019-03-19T08:02:45.230Z,99415.18
2019-03-19T08:04:56.010Z,99416.27
2019-03-19T08:07:06.847Z,99416.86
2019-03-19T08:09:17.688Z,99427.05
2019-03-19T08:11:28.538Z,99429.41
2019-03-19T08:13:39.350Z,99425.79
2019-03-19T08:15:50.161Z,99427.42
2019-03-19T08:18:00.993Z,99432.00
2019-03-19T08:20:31.659Z,99442.52
2019-03-19T08:22:42.549Z,99446.20
2019-03-19T08:24:53.358Z,99441.60
2019-03-19T08:27:04.193Z,99437.34
2019-03-19T08:29:15.033Z,99442.91
2019-03-19T08:31:25.838Z,99444.73
2019-03-19T08:33:36.698Z,99454.36
2019-03-19T08:35:47.510Z,99452.52
2019-03-19T08:37:58.338Z,99454.93
2019-03-19T08:40:51.089Z,99451.31
2019-03-19T08:43:02.052Z,99455.05
2019-03-19T08:45:54.481Z,99459.39
2019-03-19T08:48:05.311Z,99455.17
2019-03-19T08:50:57.779Z,99459.70
2019-03-19T08:53:08.607Z,99457.66
2019-03-19T08:55:19.522Z,99465.67
2019-03-19T08:57:30.448Z,99465.76
2019-03-19T08:59:41.271Z,99460.96
2019-03-19T09:01:52.117Z,99458.39
2019-03-19T09:04:02.904Z,99464.02
2019-03-19T09:06:13.717Z,99470.79
2019-03-19T09:08:24.504Z,99467.73
2019-03-19T09:10:35.344Z,99461.73
2019-03-19T09:12:48.161Z,99457.88
2019-03-19T09:14:58.939Z,99462.73
2019-03-19T09:17:09.855Z,99462.95
2019-03-19T09:19:20.676Z,99461.32
2019-03-19T09:21:31.507Z,99461.16
2019-03-19T09:23:42.303Z,99463.54
2019-03-19T09:25:53.193Z,99466.64
2019-03-19T09:28:04.022Z,99469.41
2019-03-19T09:30:56.477Z,99467.83
2019-03-19T09:33:07.284Z,99474.83
2019-03-19T09:35:18.198Z,99472.02
2019-03-19T09:37:29.020Z,99475.41
2019-03-19T09:39:39.877Z,99471.38
2019-03-19T09:41:50.671Z,99468.28
2019-03-19T09:44:01.474Z,99469.17
2019-03-19T09:46:12.297Z,99471.84
2019-03-19T09:48:23.101Z,99464.26
2019-03-19T09:50:33.914Z,99461.84
2019-03-19T09:52:44.801Z,99465.33
2019-03-19T09:54:55.586Z,99463.52
2019-03-19T09:57:06.391Z,99461.41
2019-03-19T09:59:26.746Z,99465.14
2019-03-19T10:01:29.900Z,99467.89
2019-03-19T10:03:40.703Z,99459.41
2019-03-19T10:05:51.496Z,99470.58
2019-03-19T10:08:02.522Z,99466.27
2019-03-19T10:10:54.997Z,99473.91
2019-03-19T10:13:05.805Z,99464.22
2019-03-19T10:15:16.989Z,99466.66
2019-03-19T10:17:27.804Z,99463.69
2019-03-19T10:19:38.616Z,99471.05
2019-03-19T10:21:49.436Z,99471.05
2019-03-19T10:24:00.260Z,99472.80
2019-03-19T10:26:11.073Z,99469.20
2019-03-19T10:28:21.911Z,99472.85
2019-03-19T10:30:32.737Z,99474.38
2019-03-19T10:32:43.635Z,99472.81
2019-03-19T10:34:54.453Z,99483.24
2019-03-19T10:37:05.303Z,99488.66
2019-03-19T10:39:16.118Z,99479.44
2019-03-19T10:41:26.894Z,99475.79
2019-03-19T10:43:37.721Z,99470.28
2019-03-19T10:45:48.626Z,99477.98
2019-03-19T10:47:59.439Z,99482.96
2019-03-19T10:50:32.025Z,99479.25
2019-03-19T10:52:42.806Z,99476.02
2019-03-19T10:54:53.700Z,99476.23
2019-03-19T10:57:04.518Z,99474.58
2019-03-19T10:59:15.351Z,99472.44
2019-03-19T11:01:26.165Z,99470.55
2019-03-19T11:03:37.027Z,99476.05
2019-03-19T11:05:47.922Z,99472.91
2019-03-19T11:07:58.938Z,99477.19
2019-03-19T11:10:51.390Z,99471.69
2019-03-19T11:13:02.312Z,99470.73
2019-03-19T11:15:39.768Z,99473.96
2019-03-19T11:17:50.579Z,99474.97
2019-03-19T11:22:40.586Z,99470.87
2019-03-19T11:24:51.424Z,99474.04
2019-03-19T11:27:02.429Z,99469.41
2019-03-19T11:29:13.251Z,99474.41
2019-03-19T11:31:24.063Z,99474.04
2019-03-19T11:33:34.886Z,99472.78
2019-03-19T11:35:45.861Z,99467.00
2019-03-19T11:37:56.626Z,99463.83
2019-03-19T11:40:49.097Z,99463.98
2019-03-19T11:42:59.898Z,99464.27
2019-03-19T11:45:52.359Z,99469.02
2019-03-19T11:48:44.805Z,99469.67
2019-03-19T11:50:55.626Z,99459.02
2019-03-19T11:53:06.438Z,99460.28
2019-03-19T11:55:17.249Z,99459.45
2019-03-19T11:57:28.083Z,99461.06
2019-03-19T11:59:38.871Z,99467.14
2019-03-19T12:01:49.716Z,99468.01
2019-03-19T12:04:00.513Z,99472.45
2019-03-19T12:06:11.409Z,99469.55
2019-03-19T12:08:22.239Z,99468.89
2019-03-19T12:10:33.047Z,99466.77
2019-03-19T12:12:43.903Z,99473.98
2019-03-19T12:14:54.715Z,99468.05
2019-03-19T12:17:05.530Z,99462.64
2019-03-19T12:19:16.434Z,99464.67
2019-03-19T12:21:27.256Z,99463.69
2019-03-19T12:23:38.059Z,99461.64
2019-03-19T12:25:48.870Z,99460.72
2019-03-19T12:27:59.809Z,99458.25
2019-03-19T12:30:30.490Z,99459.53
2019-03-19T12:32:41.344Z,99462.16
2019-03-19T12:34:52.151Z,99462.03
2019-03-19T12:37:03.093Z,99457.63
2019-03-19T12:39:13.916Z,99460.24
2019-03-19T12:41:24.755Z,99456.48
2019-03-19T12:43:35.572Z,99450.91
2019-03-19T12:45:46.468Z,99447.70
2019-03-19T12:47:57.325Z,99448.25
2019-03-19T12:50:28.091Z,99453.27
2019-03-19T12:52:38.903Z,99452.52
2019-03-19T12:54:49.727Z,99443.84
2019-03-19T12:57:00.548Z,99444.39
2019-03-19T12:59:19.713Z,99456.80
2019-03-19T13:01:24.199Z,99451.98
2019-03-19T13:03:35.112Z,99457.98
2019-03-19T13:05:45.941Z,99458.26
2019-03-19T13:07:56.770Z,99451.72
2019-03-19T13:10:27.445Z,99457.63
2019-03-19T13:12:38.344Z,99444.49
2019-03-19T13:14:49.162Z,99447.11
2019-03-19T13:16:59.984Z,99438.52
2019-03-19T13:19:10.821Z,99445.16
2019-03-19T13:21:21.620Z,99444.05
2019-03-19T13:23:32.443Z,99437.47
2019-03-19T13:25:43.259Z,99443.08
2019-03-19T13:27:54.077Z,99446.52
2019-03-19T13:30:46.547Z,99443.13
2019-03-19T13:32:57.379Z,99442.14
2019-03-19T13:35:08.238Z,99441.43
2019-03-19T13:37:19.041Z,99438.50
2019-03-19T13:39:29.883Z,99446.01
2019-03-19T13:41:40.690Z,99444.25
2019-03-19T13:43:51.488Z,99449.45
2019-03-19T13:46:02.296Z,99450.75
2019-03-19T13:48:13.098Z,99452.89
2019-03-19T13:50:24.063Z,99449.95
2019-03-19T13:52:34.988Z,99448.61
2019-03-19T13:54:45.897Z,99450.33
2019-03-19T13:56:56.690Z,99450.80
2019-03-19T13:59:07.482Z,99451.38
2019-03-19T14:01:18.326Z,99447.63
2019-03-19T14:03:29.142Z,99451.15
2019-03-19T14:05:39.958Z,99447.41
2019-03-19T14:07:50.940Z,99448.99
2019-03-19T14:10:43.406Z,99455.61
2019-03-19T14:12:54.227Z,99449.19
2019-03-19T14:15:46.685Z,99458.02
2019-03-19T14:17:57.549Z,99460.77
2019-03-19T14:20:49.988Z,99459.05
2019-03-19T14:23:00.825Z,99462.06
2019-03-19T14:25:53.290Z,99456.98
2019-03-19T14:28:04.199Z,99463.11
2019-03-19T14:30:34.893Z,99464.57
2019-03-19T14:32:45.942Z,99468.34
2019-03-19T14:34:56.742Z,99471.55
2019-03-19T14:37:07.560Z,99464.65
2019-03-19T14:39:18.377Z,99463.73
2019-03-19T14:41:29.213Z,99464.39
2019-03-19T14:43:39.999Z,99467.73
2019-03-19T14:45:50.801Z,99461.23
2019-03-19T14:48:01.740Z,99469.03
2019-03-19T14:50:54.223Z,99464.75
2019-03-19T14:53:05.021Z,99465.39
2019-03-19T14:55:15.926Z,99464.20
2019-03-19T14:57:26.752Z,99462.45
2019-03-19T14:59:37.553Z,99460.69
2019-03-19T15:01:48.341Z,99465.00
2019-03-19T15:03:59.178Z,99465.00
2019-03-19T15:06:09.994Z,99469.63
2019-03-19T15:08:20.826Z,99468.98
2019-03-19T15:10:31.629Z,99471.33
2019-03-19T15:12:42.557Z,99465.55
2019-03-19T15:14:53.355Z,99466.17
2019-03-19T15:17:05.155Z,99469.77
2019-03-19T15:19:16.938Z,99464.50
2019-03-19T15:21:27.810Z,99469.69
2019-03-19T15:23:38.737Z,99467.91
2019-03-19T15:25:49.548Z,99471.35
2019-03-19T15:28:00.390Z,99472.31
2019-03-19T15:30:52.844Z,99464.56
2019-03-19T15:33:03.706Z,99460.25
2019-03-19T15:35:14.514Z,99469.76
2019-03-19T15:37:25.356Z,99464.98
2019-03-19T15:39:36.209Z,99464.75
2019-03-19T15:41:47.023Z,99470.33
2019-03-19T15:43:57.853Z,99471.05
2019-03-19T15:46:08.628Z,99472.92
2019-03-19T15:48:19.477Z,99476.48
2019-03-19T15:50:30.334Z,99473.54
2019-03-19T15:52:41.227Z,99473.20
2019-03-19T15:54:52.210Z,99476.78
2019-03-19T15:57:22.875Z,99483.42
2019-03-19T15:59:33.673Z,99482.94
2019-03-19T16:01:44.490Z,99492.61
2019-03-19T16:03:55.370Z,99493.38
2019-03-19T16:06:06.190Z,99492.99
2019-03-19T16:08:17.016Z,99497.69
2019-03-19T16:10:27.894Z,99500.86
2019-03-19T16:12:38.709Z,99505.47
2019-03-19T16:14:49.546Z,99502.87
2019-03-19T16:17:00.352Z,99504.33
2019-03-19T16:19:11.177Z,99501.08
2019-03-19T16:21:21.983Z,99505.99
2019-03-19T16:23:32.818Z,99510.83
2019-03-19T16:25:43.663Z,99511.86
2019-03-19T16:27:54.470Z,99517.50
2019-03-19T16:30:25.166Z,99520.66
2019-03-19T16:32:36.107Z,99523.92
2019-03-19T16:34:46.936Z,99523.75
2019-03-19T16:36:57.781Z,99529.64
2019-03-19T16:39:08.562Z,99528.80
2019-03-19T16:41:19.379Z,99528.55
2019-03-19T16:43:30.197Z,99524.97
2019-03-19T16:45:41.056Z,99532.02
2019-03-19T16:47:51.878Z,99531.17
2019-03-19T16:50:44.352Z,99533.88
2019-03-19T16:52:55.198Z,99535.30
2019-03-19T16:55:47.651Z,99546.62
2019-03-19T16:57:58.487Z,99544.06
2019-03-19T17:00:29.396Z,99548.08
2019-03-19T17:02:40.222Z,99557.65
2019-03-19T17:05:11.223Z,99559.41
2019-03-19T17:07:22.043Z,99559.41
2019-03-19T17:09:32.870Z,99565.40
2019-03-19T17:11:43.713Z,99566.69
2019-03-19T17:13:54.563Z,99565.87
2019-03-19T17:16:05.382Z,99575.92
2019-03-19T17:18:16.204Z,99575.66
2019-03-19T17:22:59.400Z,99591.00
2019-03-19T17:25:51.865Z,99591.46
2019-03-19T17:28:02.805Z,99590.31
2019-03-19T17:30:55.270Z,99597.01
2019-03-19T17:33:06.280Z,99601.95
2019-03-19T17:35:17.089Z,99603.03
2019-03-19T17:37:27.944Z,99604.36
2019-03-19T17:39:38.788Z,99606.16
2019-03-19T17:41:49.727Z,99605.31
2019-03-19T17:44:00.628Z,99609.23
2019-03-19T17:46:11.472Z,99604.52
2019-03-19T17:48:22.327Z,99608.41
2019-03-19T17:51:14.770Z,99616.73
2019-03-19T17:53:25.626Z,99614.97
2019-03-19T17:55:36.424Z,99617.12
2019-03-19T17:57:47.229Z,99629.94
2019-03-19T17:59:58.048Z,99628.53
2019-03-19T18:02:08.873Z,99633.47
2019-03-19T18:04:39.588Z,99634.23
2019-03-19T18:06:50.445Z,99641.83
2019-03-19T18:11:18.480Z,99645.67
2019-03-19T18:13:29.305Z,99655.16
2019-03-19T18:15:40.187Z,99658.26
2019-03-19T18:17:51.008Z,99670.06
2019-03-19T18:20:43.495Z,99672.28
2019-03-19T18:22:54.344Z,99676.88
2019-03-19T18:25:47.106Z,99675.43
2019-03-19T18:27:57.939Z,99681.16
2019-03-19T18:30:50.413Z,99684.12
2019-03-19T18:33:01.272Z,99684.29
2019-03-19T18:35:12.219Z,99693.12
2019-03-19T18:37:23.057Z,99686.82
2019-03-19T18:39:35.559Z,99695.59
2019-03-19T18:41:46.633Z,99692.14
2019-03-19T18:43:57.456Z,99693.08
2019-03-19T18:46:08.270Z,99700.86
2019-03-19T18:48:19.082Z,99697.48
2019-03-19T18:50:29.856Z,99696.23
2019-03-19T18:52:40.688Z,99706.16
2019-03-19T18:54:51.517Z,99709.59
2019-03-19T18:59:24.552Z,99710.48
2019-03-19T19:01:35.401Z,99703.86
2019-03-19T19:03:46.234Z,99717.19
2019-03-19T19:05:57.195Z,99717.27
2019-03-19T19:08:08.073Z,99715.26
2019-03-19T19:10:21.093Z,99720.92
2019-03-19T19:12:31.761Z,99720.20
2019-03-19T19:14:42.591Z,99728.88
2019-03-19T19:16:53.460Z,99725.94
2019-03-19T19:19:04.287Z,99725.53
2019-03-19T19:21:15.086Z,99729.17
2019-03-19T19:23:25.928Z,99731.41
2019-03-19T19:25:36.739Z,99731.50
2019-03-19T19:27:47.589Z,99736.34
2019-03-19T19:29:58.398Z,99739.83
2019-03-19T19:32:11.274Z,99742.02
2019-03-19T19:34:22.107Z,99746.78
2019-03-19T19:36:32.950Z,99746.44
2019-03-19T19:38:43.769Z,99741.73
2019-03-19T19:40:54.593Z,99751.58
2019-03-19T19:45:43.933Z,99748.22
2019-03-19T19:47:54.778Z,99754.83
2019-03-19T19:50:27.367Z,99753.19
2019-03-19T19:52:38.207Z,99753.59
2019-03-19T19:54:49.040Z,99761.75
2019-03-19T19:56:59.845Z,99763.03
2019-03-19T19:59:10.708Z,99764.42
2019-03-19T20:01:21.542Z,99766.16
2019-03-19T20:03:32.400Z,99768.70
2019-03-19T20:05:43.238Z,99763.59
2019-03-19T20:07:54.057Z,99766.12
2019-03-19T20:10:46.548Z,99765.72
2019-03-19T20:12:57.353Z,99767.53
2019-03-19T20:15:49.882Z,99774.05
2019-03-19T20:18:00.686Z,99771.94
2019-03-19T20:20:32.031Z,99781.80
2019-03-19T20:22:44.816Z,99771.14
2019-03-19T20:24:55.576Z,99778.02
2019-03-19T20:27:06.398Z,99785.34
2019-03-19T20:29:17.235Z,99781.91
2019-03-19T20:31:28.045Z,99779.73
2019-03-19T20:33:38.924Z,99781.41
2019-03-19T20:35:49.795Z,99782.75
2019-03-19T20:38:03.276Z,99784.10
2019-03-19T20:40:55.732Z,99784.97
2019-03-19T20:43:06.562Z,99783.66
2019-03-19T20:45:37.382Z,99786.25
2019-03-19T20:47:48.228Z,99791.40
2019-03-19T20:49:59.080Z,99795.75
2019-03-19T20:52:10.017Z,99799.21
2019-03-19T20:54:20.825Z,99801.80
2019-03-19T20:56:31.673Z,99806.12
2019-03-19T20:58:43.815Z,99815.98
2019-03-19T21:00:55.259Z,99815.59
2019-03-19T21:03:06.069Z,99817.75
2019-03-19T21:05:16.975Z,99822.88
2019-03-19T21:07:47.700Z,99817.73
2019-03-19T21:09:58.554Z,99821.60
2019-03-19T21:12:09.366Z,99825.02
2019-03-19T21:14:20.388Z,99826.27
2019-03-19T21:19:30.063Z,99828.91
2019-03-19T21:21:40.897Z,99834.89
2019-03-19T21:23:51.750Z,99827.22
2019-03-19T21:26:02.681Z,99834.50
2019-03-19T21:28:14.637Z,99833.67
2019-03-19T21:30:26.348Z,99837.53
2019-03-19T21:32:37.325Z,99843.93
2019-03-19T21:34:48.225Z,99852.45
2019-03-19T21:37:40.738Z,99842.19
2019-03-19T21:39:51.579Z,99844.30
2019-03-19T21:42:02.502Z,99844.70
2019-03-19T21:44:13.346Z,99850.69
2019-03-19T21:46:24.163Z,99852.83
2019-03-19T21:48:35.023Z,99851.53
2019-03-19T21:50:45.884Z,99856.20
2019-03-19T21:55:18.943Z,99860.04
2019-03-19T21:57:29.725Z,99857.48
2019-03-19T21:59:40.567Z,99859.62
2019-03-19T22:01:51.475Z,99862.21
2019-03-19T22:04:03.479Z,99870.39
2019-03-19T22:06:16.478Z,99873.83
2019-03-19T22:08:27.983Z,99876.41
2019-03-19T22:10:38.784Z,99875.99
2019-03-19T22:12:49.877Z,99875.55
2019-03-19T22:15:43.984Z,99872.56
2019-03-19T22:17:54.776Z,99885.38
2019-03-19T22:20:05.709Z,99882.41
2019-03-19T22:22:16.513Z,99884.52
2019-03-19T22:24:27.349Z,99884.51
2019-03-19T22:27:19.780Z,99882.38
2019-03-19T22:29:30.621Z,99884.11
2019-03-19T22:31:41.437Z,99878.97
2019-03-19T22:33:52.299Z,99883.27
2019-03-19T22:36:03.209Z,99883.25
2019-03-19T22:38:14.048Z,99880.69
2019-03-19T22:40:24.917Z,99885.39
2019-03-19T22:42:35.804Z,99887.53
2019-03-19T22:44:46.681Z,99888.38
2019-03-19T22:46:57.514Z,99896.48
2019-03-19T22:49:08.342Z,99896.48
2019-03-19T22:51:19.156Z,99889.22
2019-03-19T22:53:31.411Z,99899.03
2019-03-19T22:55:42.672Z,99905.45
2019-03-19T22:57:53.491Z,99908.84
2019-03-19T23:00:44.069Z,99912.22
2019-03-19T23:02:55.011Z,99912.22
2019-03-19T23:05:06.031Z,99912.63
2019-03-19T23:07:16.859Z,99915.98
2019-03-19T23:09:27.656Z,99916.86
2019-03-19T23:11:38.467Z,99909.62
2019-03-19T23:13:49.273Z,99916.91
2019-03-19T23:16:00.122Z,99919.88
2019-03-19T23:18:10.927Z,99921.17
2019-03-19T23:20:21.728Z,99914.33
2019-03-19T23:22:32.557Z,99917.30
2019-03-19T23:24:43.349Z,99919.02
2019-03-19T23:26:54.170Z,99925.83
2019-03-19T23:29:05.014Z,99922.41
2019-03-19T23:31:15.864Z,99920.27
2019-03-19T23:33:26.693Z,99916.45
2019-03-19T23:35:37.488Z,99919.90
2019-03-19T23:37:48.321Z,99919.86
2019-03-19T23:39:59.135Z,99920.67
2019-03-19T23:42:09.961Z,99916.81
2019-03-19T23:44:20.789Z,99917.23
2019-03-19T23:46:31.589Z,99923.61
2019-03-19T23:48:42.430Z,99915.92
2019-03-19T23:50:53.228Z,99922.30
2019-03-19T23:53:04.056Z,99919.30
2019-03-19T23:55:14.854Z,99923.11
2019-03-19T23:57:25.657Z,99925.67
2019-03-19T23:59:36.476Z,99929.49
